Warbranch, Kentucky
Current Conditions -  °F | °C
As of 10:55 PM on Wednesday 17 Dec 2014 (Local Time) from KI35 Reporting Station
Clear Clear  
Wind Chill: 30°   Ceiling: Unl
Heat Index: 30°   Visibility: 10mi
Dew Point: 30°   Wind: 0mph
Humidity: 100%   Direction: NA
Pressure: 30.21"   Gusts: NA
Location:  36.96°N, 83.45°W
Report Text: KI35 180355Z AUTO 00000KT 10SM CLR M01/M01 A3021 RMK AO1
Loading
Personal Weather Stations






























Interactive Weather Map New forecast layout! Learn more

10-Day Weather Forecast

Advertisements
Track Severe Weather on mobile